createdAt,value
2018-05-17T00:01:00.279Z,16.87
2018-05-17T00:03:27.744Z,15.57
2018-05-17T00:05:55.183Z,13.30
2018-05-17T00:08:22.678Z,13.73
2018-05-17T00:10:50.167Z,12.80
2018-05-17T00:13:17.749Z,15.10
2018-05-17T00:15:49.017Z,12.40
2018-05-17T00:18:16.507Z,15.23
2018-05-17T00:20:43.977Z,15.50
2018-05-17T00:23:11.472Z,18.47
2018-05-17T00:25:38.919Z,16.63
2018-05-17T00:28:06.401Z,15.80
2018-05-17T00:30:33.862Z,16.53
2018-05-17T00:33:01.351Z,15.80
2018-05-17T00:35:28.800Z,14.47
2018-05-17T00:37:56.249Z,18.27
2018-05-17T00:40:23.815Z,18.80
2018-05-17T00:42:51.328Z,17.97
2018-05-17T00:45:18.854Z,16.23
2018-05-17T00:47:46.351Z,16.70
2018-05-17T00:50:13.836Z,17.27
2018-05-17T00:52:41.289Z,15.30
2018-05-17T00:55:08.898Z,15.30
2018-05-17T00:57:36.360Z,16.60
2018-05-17T01:00:03.913Z,15.10
2018-05-17T01:02:31.450Z,15.43
2018-05-17T01:04:58.971Z,17.40
2018-05-17T01:07:26.439Z,19.10
2018-05-17T01:09:53.909Z,16.30
2018-05-17T01:12:21.371Z,20.07
2018-05-17T01:14:49.522Z,20.80
2018-05-17T01:17:16.997Z,16.77
2018-05-17T01:19:44.514Z,19.00
2018-05-17T01:22:12.064Z,18.87
2018-05-17T01:24:39.654Z,16.23
2018-05-17T01:27:07.222Z,18.97
2018-05-17T01:29:34.777Z,16.83
2018-05-17T01:32:02.253Z,15.80
2018-05-17T01:34:29.724Z,16.77
2018-05-17T01:39:58.013Z,24.50
2018-05-17T01:42:26.061Z,19.37
2018-05-17T01:44:53.527Z,23.70
2018-05-17T01:47:21.177Z,26.13
2018-05-17T01:49:48.750Z,21.40
2018-05-17T01:52:16.295Z,20.07
2018-05-17T01:54:43.767Z,22.47
2018-05-17T01:57:11.301Z,27.50
2018-05-17T01:59:38.826Z,23.73
2018-05-17T02:02:06.408Z,22.70
2018-05-17T02:04:34.186Z,27.47
2018-05-17T02:07:02.004Z,22.83
2018-05-17T02:09:29.496Z,25.77
2018-05-17T02:11:57.005Z,26.00
2018-05-17T02:14:24.621Z,23.77
2018-05-17T02:16:52.961Z,26.13
2018-05-17T02:19:20.389Z,23.67
2018-05-17T02:21:47.886Z,23.07
2018-05-17T02:24:15.424Z,25.53
2018-05-17T02:26:42.868Z,22.63
2018-05-17T02:29:10.325Z,22.73
2018-05-17T02:31:37.816Z,22.80
2018-05-17T02:34:05.262Z,22.63
2018-05-17T02:36:33.070Z,25.43
2018-05-17T02:39:00.553Z,27.07
2018-05-17T02:41:28.032Z,25.20
2018-05-17T02:43:55.485Z,27.50
2018-05-17T02:46:23.467Z,26.10
2018-05-17T02:48:52.168Z,23.53
2018-05-17T02:51:19.641Z,28.70
2018-05-17T02:53:47.126Z,47.70
2018-05-17T02:56:14.604Z,24.47
2018-05-17T02:58:42.059Z,26.90
2018-05-17T03:01:09.594Z,27.67
2018-05-17T03:03:37.247Z,29.23
2018-05-17T03:06:04.826Z,30.80
2018-05-17T03:08:32.270Z,31.77
2018-05-17T03:10:59.824Z,34.67
2018-05-17T03:13:27.285Z,40.70
2018-05-17T03:15:54.735Z,43.93
2018-05-17T03:18:27.135Z,42.83
2018-05-17T03:20:54.664Z,45.07
2018-05-17T03:23:22.199Z,46.57
2018-05-17T03:25:49.771Z,41.40
2018-05-17T03:28:17.276Z,44.93
2018-05-17T03:30:44.722Z,44.53
2018-05-17T03:33:12.249Z,37.73
2018-05-17T03:35:39.756Z,40.90
2018-05-17T03:38:07.257Z,42.97
2018-05-17T03:40:35.042Z,86.43
2018-05-17T03:43:02.515Z,40.47
2018-05-17T03:45:29.985Z,37.47
2018-05-17T03:47:57.463Z,37.40
2018-05-17T03:50:24.960Z,41.83
2018-05-17T03:52:52.408Z,34.50
2018-05-17T03:55:19.874Z,39.47
2018-05-17T03:57:47.333Z,37.07
2018-05-17T04:00:15.106Z,39.37
2018-05-17T04:02:55.740Z,36.30
2018-05-17T04:05:35.388Z,38.17
2018-05-17T04:08:02.908Z,39.83
2018-05-17T04:10:30.381Z,32.97
2018-05-17T04:12:57.826Z,35.80
2018-05-17T04:15:25.384Z,32.70
2018-05-17T04:17:52.833Z,35.40
2018-05-17T04:20:20.296Z,32.83
2018-05-17T04:22:47.968Z,30.97
2018-05-17T04:25:15.823Z,32.97
2018-05-17T04:27:43.309Z,31.30
2018-05-17T04:30:10.895Z,32.47
2018-05-17T04:32:38.440Z,33.97
2018-05-17T04:35:06.987Z,32.53
2018-05-17T04:37:34.724Z,30.63
2018-05-17T04:40:02.193Z,32.40
2018-05-17T04:42:29.670Z,29.60
2018-05-17T04:44:57.199Z,27.33
2018-05-17T04:47:24.769Z,28.20
2018-05-17T04:49:52.279Z,29.20
2018-05-17T04:52:19.789Z,28.53
2018-05-17T04:54:47.458Z,24.80
2018-05-17T04:57:15.014Z,25.83
2018-05-17T04:59:42.475Z,23.60
2018-05-17T05:02:10.053Z,25.73
2018-05-17T05:04:37.681Z,23.70
2018-05-17T05:07:05.370Z,21.77
2018-05-17T05:09:32.900Z,22.27
2018-05-17T05:12:00.421Z,22.90
2018-05-17T05:14:28.099Z,27.40
2018-05-17T05:16:55.619Z,23.10
2018-05-17T05:19:23.160Z,22.43
2018-05-17T05:21:50.634Z,26.23
2018-05-17T05:24:18.120Z,26.30
2018-05-17T05:26:45.570Z,28.60
2018-05-17T05:29:13.175Z,33.00
2018-05-17T05:31:40.661Z,36.70
2018-05-17T05:34:08.129Z,35.80
2018-05-17T05:36:35.662Z,41.53
2018-05-17T05:39:03.295Z,41.07
2018-05-17T05:41:31.088Z,46.27
2018-05-17T05:43:58.589Z,41.63
2018-05-17T05:46:26.070Z,43.03
2018-05-17T05:48:53.532Z,46.73
2018-05-17T05:51:21.013Z,46.23
2018-05-17T05:53:48.530Z,46.63
2018-05-17T05:56:15.995Z,47.73
2018-05-17T05:58:43.512Z,44.63
2018-05-17T06:01:11.355Z,50.13
2018-05-17T06:03:38.839Z,50.20
2018-05-17T06:06:06.350Z,55.17
2018-05-17T06:08:33.861Z,54.97
2018-05-17T06:11:01.356Z,50.30
2018-05-17T06:13:29.374Z,49.97
2018-05-17T06:15:57.247Z,51.47
2018-05-17T06:18:25.477Z,50.50
2018-05-17T06:20:53.385Z,52.83
2018-05-17T06:23:20.913Z,57.73
2018-05-17T06:25:48.533Z,48.63
2018-05-17T06:28:16.075Z,54.97
2018-05-17T06:30:43.621Z,51.27
2018-05-17T06:33:11.106Z,49.33
2018-05-17T06:35:38.596Z,57.20
2018-05-17T06:38:06.533Z,47.80
2018-05-17T06:40:34.026Z,52.47
2018-05-17T06:43:01.491Z,47.03
2018-05-17T06:45:28.968Z,55.60
2018-05-17T06:47:56.517Z,56.93
2018-05-17T06:50:24.039Z,52.10
2018-05-17T06:52:52.533Z,53.77
2018-05-17T06:55:20.337Z,55.00
2018-05-17T06:57:47.766Z,51.47
2018-05-17T07:00:15.653Z,49.67
2018-05-17T07:02:43.107Z,54.43
2018-05-17T07:05:10.695Z,51.97
2018-05-17T07:07:38.209Z,49.13
2018-05-17T07:10:05.891Z,57.37
2018-05-17T07:12:33.406Z,49.60
2018-05-17T07:15:00.887Z,46.63
2018-05-17T07:17:28.869Z,45.30
2018-05-17T07:19:56.390Z,45.90
2018-05-17T07:22:23.893Z,43.90
2018-05-17T07:24:53.533Z,41.80
2018-05-17T07:27:24.042Z,45.37
2018-05-17T07:29:52.907Z,42.30
2018-05-17T07:32:20.368Z,39.13
2018-05-17T07:34:47.902Z,43.13
2018-05-17T07:37:15.479Z,43.20
2018-05-17T07:39:43.038Z,40.63
2018-05-17T07:42:11.673Z,39.97
2018-05-17T07:44:39.190Z,43.23
2018-05-17T07:47:06.815Z,41.00
2018-05-17T07:49:34.229Z,42.80
2018-05-17T07:52:02.671Z,37.63
2018-05-17T07:54:30.793Z,36.90
2018-05-17T07:56:58.253Z,34.97
2018-05-17T07:59:25.702Z,33.10
2018-05-17T08:01:54.254Z,31.63
2018-05-17T08:04:21.884Z,28.47
2018-05-17T08:06:49.351Z,22.97
2018-05-17T08:09:16.893Z,20.07
2018-05-17T08:11:44.369Z,22.23
2018-05-17T08:14:11.858Z,23.53
2018-05-17T08:16:39.315Z,22.50
2018-05-17T08:19:06.786Z,25.20
2018-05-17T08:21:35.085Z,24.10
2018-05-17T08:24:02.623Z,24.83
2018-05-17T08:26:30.092Z,25.50
2018-05-17T08:28:57.731Z,26.00
2018-05-17T08:31:25.249Z,22.77
2018-05-17T08:33:53.681Z,22.53
2018-05-17T08:36:21.168Z,24.97
2018-05-17T08:38:49.851Z,24.60
2018-05-17T08:41:17.403Z,28.03
2018-05-17T08:43:44.885Z,23.67
2018-05-17T08:46:12.402Z,23.90
2018-05-17T08:48:40.687Z,22.80
2018-05-17T08:51:08.223Z,23.17
2018-05-17T08:53:35.977Z,26.27
2018-05-17T08:56:03.452Z,26.97
2018-05-17T08:58:32.104Z,24.67
2018-05-17T09:01:00.786Z,27.40
2018-05-17T09:03:28.239Z,28.47
2018-05-17T09:05:55.724Z,30.70
2018-05-17T09:08:24.129Z,43.60
2018-05-17T09:10:52.559Z,34.83
2018-05-17T09:13:20.076Z,35.70
2018-05-17T09:15:47.659Z,40.27
2018-05-17T09:18:15.286Z,39.37
2018-05-17T09:20:42.746Z,48.83
2018-05-17T09:23:10.206Z,43.90
2018-05-17T09:25:38.244Z,42.70
2018-05-17T09:28:06.584Z,41.50
2018-05-17T09:30:34.129Z,42.27
2018-05-17T09:33:01.615Z,49.00
2018-05-17T09:35:29.328Z,43.63
2018-05-17T09:37:57.708Z,40.33
2018-05-17T09:40:25.141Z,43.00
2018-05-17T09:42:53.426Z,45.93
2018-05-17T09:45:20.896Z,46.03
2018-05-17T09:47:48.349Z,44.23
2018-05-17T09:50:17.258Z,46.40
2018-05-17T09:52:44.833Z,47.00
2018-05-17T09:55:12.473Z,50.07
2018-05-17T09:57:40.663Z,47.87
2018-05-17T10:00:08.347Z,45.50
2018-05-17T10:02:35.837Z,44.00
2018-05-17T10:05:03.791Z,47.00
2018-05-17T10:07:32.330Z,52.70
2018-05-17T10:09:59.789Z,50.77
2018-05-17T10:12:27.394Z,47.30
2018-05-17T10:14:55.007Z,46.90
2018-05-17T10:17:22.552Z,49.13
2018-05-17T10:19:50.082Z,49.37
2018-05-17T10:22:17.546Z,44.70
2018-05-17T10:24:45.037Z,47.73
2018-05-17T10:27:12.515Z,44.10
2018-05-17T10:29:40.344Z,44.67
2018-05-17T10:32:08.168Z,48.73
2018-05-17T10:34:35.997Z,50.90
2018-05-17T10:37:05.178Z,46.90
2018-05-17T10:39:32.800Z,44.43
2018-05-17T10:42:00.694Z,44.10
2018-05-17T10:44:28.154Z,44.20
2018-05-17T10:46:56.760Z,39.70
2018-05-17T10:49:24.244Z,40.90
2018-05-17T10:51:51.793Z,38.20
2018-05-17T10:54:19.819Z,37.03
2018-05-17T10:56:47.688Z,38.30
2018-05-17T10:59:15.163Z,45.40
2018-05-17T11:01:42.694Z,39.57
2018-05-17T11:04:10.370Z,39.70
2018-05-17T11:06:38.553Z,40.77
2018-05-17T11:09:06.404Z,43.60
2018-05-17T11:11:33.896Z,42.87
2018-05-17T11:14:02.441Z,38.13
2018-05-17T11:16:29.890Z,42.47
2018-05-17T11:18:57.675Z,46.10
2018-05-17T11:21:26.089Z,42.63
2018-05-17T11:23:54.162Z,41.00
2018-05-17T11:26:21.655Z,36.57
2018-05-17T11:28:49.148Z,42.10
2018-05-17T11:31:16.675Z,44.80
2018-05-17T11:33:45.284Z,42.93
2018-05-17T11:36:13.328Z,45.87
2018-05-17T11:38:40.829Z,43.00
2018-05-17T11:41:08.382Z,40.97
2018-05-17T11:43:35.994Z,45.73
2018-05-17T11:46:03.553Z,43.33
2018-05-17T11:48:31.666Z,43.60
2018-05-17T11:50:59.785Z,42.33
2018-05-17T11:53:28.104Z,41.13
2018-05-17T11:55:56.347Z,43.33
2018-05-17T11:58:24.587Z,40.80
2018-05-17T12:00:52.132Z,38.70
2018-05-17T12:03:20.922Z,41.60
2018-05-17T12:05:48.519Z,41.03
2018-05-17T12:08:16.126Z,45.17
2018-05-17T12:10:43.614Z,45.10
2018-05-17T12:13:11.123Z,43.20
2018-05-17T12:15:38.569Z,41.13
2018-05-17T12:18:06.227Z,45.73
2018-05-17T12:20:33.763Z,39.17
2018-05-17T12:23:03.144Z,40.97
2018-05-17T12:25:30.542Z,39.77
2018-05-17T12:27:58.094Z,41.30
2018-05-17T12:33:01.872Z,50.70
2018-05-17T12:35:29.778Z,46.33
2018-05-17T12:37:58.229Z,47.20
2018-05-17T12:40:26.529Z,43.30
2018-05-17T12:42:54.023Z,43.83
2018-05-17T12:45:21.579Z,38.20
2018-05-17T12:47:49.038Z,45.70
2018-05-17T12:50:16.570Z,39.77
2018-05-17T12:52:44.082Z,39.40
2018-05-17T12:55:12.155Z,39.90
2018-05-17T12:57:39.909Z,41.13
2018-05-17T13:00:07.385Z,43.13
2018-05-17T13:02:34.935Z,43.67
2018-05-17T13:05:02.441Z,34.97
2018-05-17T13:07:29.943Z,37.60
2018-05-17T13:09:57.532Z,41.37
2018-05-17T13:12:25.266Z,41.90
2018-05-17T13:14:52.778Z,43.10
2018-05-17T13:17:20.320Z,40.40
2018-05-17T13:19:47.793Z,35.80
2018-05-17T13:22:15.660Z,42.90
2018-05-17T13:24:43.388Z,39.00
2018-05-17T13:27:12.873Z,34.73
2018-05-17T13:29:40.415Z,35.30
2018-05-17T13:32:07.953Z,33.77
2018-05-17T13:34:35.988Z,36.97
2018-05-17T13:37:03.477Z,37.70
2018-05-17T13:39:30.958Z,38.60
2018-05-17T13:41:58.477Z,34.13
2018-05-17T13:44:25.981Z,33.73
2018-05-17T13:46:53.529Z,30.83
2018-05-17T13:49:22.097Z,38.03
2018-05-17T13:51:49.652Z,32.47
2018-05-17T13:54:17.191Z,29.93
2018-05-17T13:56:44.640Z,37.97
2018-05-17T13:59:12.161Z,36.20
2018-05-17T14:01:39.638Z,32.67
2018-05-17T14:04:07.232Z,37.33
2018-05-17T14:06:34.694Z,33.00
2018-05-17T14:09:02.150Z,39.53
2018-05-17T14:11:29.607Z,36.30
2018-05-17T14:13:57.182Z,36.23
2018-05-17T14:16:25.334Z,32.00
2018-05-17T14:18:53.428Z,33.30
2018-05-17T14:21:20.960Z,32.30
2018-05-17T14:23:48.415Z,28.47
2018-05-17T14:26:16.385Z,32.73
2018-05-17T14:28:43.831Z,27.77
2018-05-17T14:31:11.318Z,30.20
2018-05-17T14:33:38.786Z,37.17
2018-05-17T14:36:06.328Z,30.93
2018-05-17T14:38:33.784Z,28.30
2018-05-17T14:41:01.303Z,33.67
2018-05-17T14:43:28.803Z,28.30
2018-05-17T14:45:56.587Z,32.43
2018-05-17T14:48:24.066Z,31.43
2018-05-17T14:50:51.648Z,35.63
2018-05-17T14:53:19.192Z,26.93
2018-05-17T14:55:46.854Z,33.10
2018-05-17T14:58:14.275Z,31.90
2018-05-17T15:00:42.396Z,27.90
2018-05-17T15:03:09.889Z,32.90
2018-05-17T15:05:37.376Z,28.17
2018-05-17T15:08:04.908Z,27.00
2018-05-17T15:10:32.401Z,26.90
2018-05-17T15:12:59.954Z,26.20
2018-05-17T15:15:27.620Z,34.77
2018-05-17T15:17:55.110Z,24.40
2018-05-17T15:20:22.594Z,28.60
2018-05-17T15:22:50.103Z,30.83
2018-05-17T15:25:17.920Z,27.07
2018-05-17T15:27:45.358Z,26.00
2018-05-17T15:30:12.859Z,24.60
2018-05-17T15:32:40.805Z,28.30
2018-05-17T15:35:08.365Z,28.73
2018-05-17T15:37:36.299Z,28.43
2018-05-17T15:40:03.799Z,26.97
2018-05-17T15:42:31.321Z,29.10
2018-05-17T15:45:01.400Z,25.83
2018-05-17T15:47:28.868Z,29.27
2018-05-17T15:49:57.212Z,25.50
2018-05-17T15:52:25.775Z,24.80
2018-05-17T15:54:53.344Z,19.87
2018-05-17T15:57:20.833Z,26.67
2018-05-17T15:59:48.327Z,23.00
2018-05-17T16:02:15.795Z,27.30
2018-05-17T16:04:45.530Z,22.67
2018-05-17T16:07:13.154Z,27.80
2018-05-17T16:09:40.751Z,26.00
2018-05-17T16:12:08.209Z,26.70
2018-05-17T16:14:35.764Z,28.00
2018-05-17T16:17:03.223Z,25.97
2018-05-17T16:19:30.785Z,25.13
2018-05-17T16:21:58.242Z,27.70
2018-05-17T16:24:26.620Z,27.17
2018-05-17T16:26:54.091Z,26.80
2018-05-17T16:29:22.106Z,38.70
2018-05-17T16:31:49.579Z,25.30
2018-05-17T16:34:17.080Z,22.87
2018-05-17T16:36:44.581Z,30.77
2018-05-17T16:39:12.055Z,25.90
2018-05-17T16:41:39.789Z,33.07
2018-05-17T16:44:07.289Z,20.70
2018-05-17T16:46:34.825Z,27.37
2018-05-17T16:49:02.407Z,25.70
2018-05-17T16:51:30.762Z,24.50
2018-05-17T16:53:58.341Z,24.23
2018-05-17T16:56:30.636Z,19.63
2018-05-17T16:58:58.713Z,23.73
2018-05-17T17:01:26.434Z,26.63
2018-05-17T17:03:53.926Z,20.00
2018-05-17T17:06:21.411Z,20.03
2018-05-17T17:08:48.908Z,19.20
2018-05-17T17:11:16.407Z,24.47
2018-05-17T17:13:43.908Z,16.87
2018-05-17T17:16:11.706Z,19.80
2018-05-17T17:18:39.177Z,15.20
2018-05-17T17:21:06.686Z,23.50
2018-05-17T17:23:34.981Z,25.20
2018-05-17T17:26:02.485Z,21.73
2018-05-17T17:28:29.929Z,25.33
2018-05-17T17:30:57.434Z,20.27
2018-05-17T17:33:24.909Z,16.50
2018-05-17T17:35:52.736Z,23.17
2018-05-17T17:38:21.526Z,19.37
2018-05-17T17:40:50.854Z,16.93
2018-05-17T17:43:18.328Z,16.20
2018-05-17T17:45:45.845Z,17.83
2018-05-17T17:48:13.514Z,17.33
2018-05-17T17:50:41.870Z,22.17
2018-05-17T17:53:09.366Z,16.60
2018-05-17T17:55:36.927Z,16.40
2018-05-17T17:58:04.452Z,16.40
2018-05-17T18:00:32.472Z,18.10
2018-05-17T18:03:00.871Z,20.00
2018-05-17T18:05:28.397Z,19.33
2018-05-17T18:07:55.984Z,20.27
2018-05-17T18:10:23.439Z,19.73
2018-05-17T18:12:54.965Z,18.10
2018-05-17T18:15:22.468Z,21.00
2018-05-17T18:17:50.081Z,20.40
2018-05-17T18:20:18.558Z,17.47
2018-05-17T18:22:46.092Z,22.20
2018-05-17T18:25:13.725Z,17.30
2018-05-17T18:27:42.916Z,21.47
2018-05-17T18:30:10.409Z,25.87
2018-05-17T18:32:38.011Z,22.50
2018-05-17T18:35:05.515Z,26.60
2018-05-17T18:37:33.148Z,24.47
2018-05-17T18:40:00.737Z,22.20
2018-05-17T18:42:29.493Z,19.00
2018-05-17T18:44:57.071Z,22.03
2018-05-17T18:47:25.072Z,30.23
2018-05-17T18:49:52.592Z,20.27
2018-05-17T18:52:20.059Z,20.03
2018-05-17T18:54:47.582Z,21.70
2018-05-17T18:57:15.042Z,21.73
2018-05-17T18:59:42.980Z,22.57
2018-05-17T19:02:10.574Z,25.40
2018-05-17T19:04:38.079Z,20.87
2018-05-17T19:07:05.693Z,17.20
2018-05-17T19:09:33.343Z,24.83
2018-05-17T19:12:00.882Z,27.93
2018-05-17T19:14:28.368Z,25.93
2018-05-17T19:16:55.866Z,28.57
2018-05-17T19:19:23.980Z,25.07
2018-05-17T19:21:53.030Z,24.87
2018-05-17T19:24:21.145Z,21.63
2018-05-17T19:26:48.684Z,24.37
2018-05-17T19:29:16.926Z,23.37
2018-05-17T19:31:46.343Z,27.07
2018-05-17T19:34:13.843Z,23.10
2018-05-17T19:36:41.319Z,26.67
2018-05-17T19:39:08.825Z,21.60
2018-05-17T19:41:37.401Z,30.63
2018-05-17T19:44:05.072Z,26.00
2018-05-17T19:46:33.276Z,32.23
2018-05-17T19:49:01.391Z,27.03
2018-05-17T19:51:28.874Z,24.90
2018-05-17T19:53:56.379Z,24.97
2018-05-17T19:56:23.884Z,29.00
2018-05-17T19:58:52.298Z,25.00
2018-05-17T20:01:19.837Z,25.30
2018-05-17T20:03:47.321Z,26.30
2018-05-17T20:06:15.574Z,22.77
2018-05-17T20:08:43.064Z,26.23
2018-05-17T20:11:10.804Z,24.83
2018-05-17T20:13:38.275Z,26.57
2018-05-17T20:16:05.772Z,28.70
2018-05-17T20:18:33.270Z,30.03
2018-05-17T20:21:00.784Z,26.67
2018-05-17T20:23:28.284Z,24.93
2018-05-17T20:25:55.739Z,29.50
2018-05-17T20:28:23.440Z,23.73
2018-05-17T20:30:52.717Z,23.70
2018-05-17T20:33:20.309Z,29.13
2018-05-17T20:35:48.788Z,28.47
2018-05-17T20:38:16.894Z,26.70
2018-05-17T20:40:44.550Z,27.40
2018-05-17T20:43:12.122Z,26.20
2018-05-17T20:45:39.807Z,25.20
2018-05-17T20:48:07.301Z,24.17
2018-05-17T20:50:35.075Z,29.90
2018-05-17T20:53:02.618Z,31.20
2018-05-17T20:55:30.091Z,26.40
2018-05-17T20:57:58.189Z,24.20
2018-05-17T21:00:25.731Z,26.30
2018-05-17T21:02:53.167Z,27.23
2018-05-17T21:05:21.276Z,26.37
2018-05-17T21:07:48.930Z,36.13
2018-05-17T21:10:17.634Z,28.13
2018-05-17T21:12:45.136Z,27.83
2018-05-17T21:15:12.580Z,30.30
2018-05-17T21:17:40.219Z,28.00
2018-05-17T21:20:07.691Z,27.30
2018-05-17T21:22:35.143Z,24.43
2018-05-17T21:25:02.631Z,25.83
2018-05-17T21:27:30.102Z,25.70
2018-05-17T21:29:57.627Z,30.57
2018-05-17T21:32:25.075Z,28.53
2018-05-17T21:34:53.397Z,29.70
2018-05-17T21:37:20.967Z,32.13
2018-05-17T21:39:48.429Z,30.27
2018-05-17T21:42:15.907Z,27.67
2018-05-17T21:44:43.401Z,27.53
2018-05-17T21:47:10.861Z,32.80
2018-05-17T21:49:38.360Z,27.07
2018-05-17T21:52:06.164Z,26.93
2018-05-17T21:54:33.719Z,32.00
2018-05-17T21:57:01.180Z,28.40
2018-05-17T21:59:29.056Z,30.93
2018-05-17T22:01:56.535Z,31.23
2018-05-17T22:04:23.994Z,24.67
2018-05-17T22:06:51.431Z,27.70
2018-05-17T22:09:20.965Z,32.53
2018-05-17T22:11:50.627Z,35.63
2018-05-17T22:14:21.400Z,32.80
2018-05-17T22:16:50.521Z,25.67
2018-05-17T22:19:20.424Z,31.80
2018-05-17T22:21:47.866Z,27.30
2018-05-17T22:24:15.296Z,29.90
2018-05-17T22:26:42.822Z,31.43
2018-05-17T22:29:10.299Z,26.63
2018-05-17T22:31:37.890Z,28.67
2018-05-17T22:34:05.347Z,28.63
2018-05-17T22:36:33.377Z,29.63
2018-05-17T22:39:00.802Z,35.07
2018-05-17T22:41:28.281Z,26.77
2018-05-17T22:43:55.742Z,29.00
2018-05-17T22:46:23.210Z,31.23
2018-05-17T22:48:50.669Z,27.90
2018-05-17T22:51:18.167Z,28.17
2018-05-17T22:53:45.652Z,33.00
2018-05-17T22:59:14.469Z,31.03
2018-05-17T23:01:42.191Z,32.80
2018-05-17T23:04:09.646Z,38.93
2018-05-17T23:06:37.283Z,41.17
2018-05-17T23:09:04.797Z,43.03
2018-05-17T23:11:32.284Z,54.90
2018-05-17T23:13:59.764Z,48.03
2018-05-17T23:16:27.332Z,46.30
2018-05-17T23:18:54.794Z,40.33
2018-05-17T23:21:22.337Z,42.20
2018-05-17T23:23:50.101Z,40.50
2018-05-17T23:26:18.420Z,35.50
2018-05-17T23:28:45.871Z,44.20
2018-05-17T23:31:13.672Z,44.00
2018-05-17T23:33:41.142Z,49.70
2018-05-17T23:36:09.255Z,38.57
2018-05-17T23:38:36.820Z,38.40
2018-05-17T23:41:16.118Z,35.67
2018-05-17T23:43:43.571Z,42.03
2018-05-17T23:46:11.057Z,39.93
2018-05-17T23:48:38.520Z,41.30
2018-05-17T23:51:05.954Z,38.00
2018-05-17T23:53:33.414Z,30.50
2018-05-17T23:56:00.872Z,39.03
2018-05-17T23:58:28.327Z,32.30
